sensor_id;sensor_type;location;lat;lon;timestamp;P1;durP1;ratioP1;P2;durP2;ratioP2
60292;SDS011;52402;52.670;6.750;2024-02-14T00:00:33;28.67;;;27.27;;
60292;SDS011;52402;52.670;6.750;2024-02-14T00:02:59;29.02;;;27.63;;
60292;SDS011;52402;52.670;6.750;2024-02-14T00:05:25;28.60;;;27.20;;
60292;SDS011;52402;52.670;6.750;2024-02-14T00:07:51;29.02;;;27.63;;
60292;SDS011;52402;52.670;6.750;2024-02-14T00:10:17;28.10;;;26.80;;
60292;SDS011;52402;52.670;6.750;2024-02-14T00:12:42;27.45;;;26.15;;
60292;SDS011;52402;52.670;6.750;2024-02-14T00:15:08;27.70;;;26.40;;
60292;SDS011;52402;52.670;6.750;2024-02-14T00:17:34;27.10;;;25.80;;
60292;SDS011;52402;52.670;6.750;2024-02-14T00:20:01;26.63;;;25.33;;
60292;SDS011;52402;52.670;6.750;2024-02-14T00:22:28;26.08;;;24.77;;
60292;SDS011;52402;52.670;6.750;2024-02-14T00:24:53;26.95;;;25.65;;
60292;SDS011;52402;52.670;6.750;2024-02-14T00:27:19;26.30;;;25.00;;
60292;SDS011;52402;52.670;6.750;2024-02-14T00:29:44;26.45;;;25.15;;
60292;SDS011;52402;52.670;6.750;2024-02-14T00:32:12;25.73;;;24.42;;
60292;SDS011;52402;52.670;6.750;2024-02-14T00:34:38;25.65;;;24.35;;
60292;SDS011;52402;52.670;6.750;2024-02-14T00:37:03;26.75;;;25.45;;
60292;SDS011;52402;52.670;6.750;2024-02-14T00:39:29;25.25;;;24.00;;
60292;SDS011;52402;52.670;6.750;2024-02-14T00:41:54;26.13;;;24.83;;
60292;SDS011;52402;52.670;6.750;2024-02-14T00:44:21;25.40;;;24.10;;
60292;SDS011;52402;52.670;6.750;2024-02-14T00:46:47;26.80;;;25.42;;
60292;SDS011;52402;52.670;6.750;2024-02-14T00:49:13;26.00;;;24.70;;
60292;SDS011;52402;52.670;6.750;2024-02-14T00:51:39;27.08;;;25.73;;
60292;SDS011;52402;52.670;6.750;2024-02-14T00:54:05;27.35;;;25.95;;
60292;SDS011;52402;52.670;6.750;2024-02-14T00:56:31;26.40;;;25.10;;
60292;SDS011;52402;52.670;6.750;2024-02-14T00:58:58;25.60;;;24.30;;
60292;SDS011;52402;52.670;6.750;2024-02-14T01:01:24;25.92;;;24.63;;
60292;SDS011;52402;52.670;6.750;2024-02-14T01:03:50;26.13;;;24.83;;
60292;SDS011;52402;52.670;6.750;2024-02-14T01:06:16;26.05;;;24.75;;
60292;SDS011;52402;52.670;6.750;2024-02-14T01:08:43;24.55;;;23.35;;
60292;SDS011;52402;52.670;6.750;2024-02-14T01:13:37;25.60;;;24.30;;
60292;SDS011;52402;52.670;6.750;2024-02-14T01:16:03;27.58;;;26.17;;
60292;SDS011;52402;52.670;6.750;2024-02-14T01:18:29;25.42;;;24.13;;
60292;SDS011;52402;52.670;6.750;2024-02-14T01:20:55;24.60;;;23.33;;
60292;SDS011;52402;52.670;6.750;2024-02-14T01:23:23;25.45;;;24.15;;
60292;SDS011;52402;52.670;6.750;2024-02-14T01:25:49;26.08;;;24.77;;
60292;SDS011;52402;52.670;6.750;2024-02-14T01:28:15;27.33;;;25.92;;
60292;SDS011;52402;52.670;6.750;2024-02-14T01:30:42;25.02;;;23.73;;
60292;SDS011;52402;52.670;6.750;2024-02-14T01:33:08;24.95;;;23.65;;
60292;SDS011;52402;52.670;6.750;2024-02-14T01:35:34;25.10;;;23.80;;
60292;SDS011;52402;52.670;6.750;2024-02-14T01:37:59;25.77;;;24.48;;
60292;SDS011;52402;52.670;6.750;2024-02-14T01:40:27;26.17;;;24.77;;
60292;SDS011;52402;52.670;6.750;2024-02-14T01:42:53;26.52;;;25.13;;
60292;SDS011;52402;52.670;6.750;2024-02-14T01:45:20;25.85;;;24.55;;
60292;SDS011;52402;52.670;6.750;2024-02-14T01:47:46;25.40;;;24.10;;
60292;SDS011;52402;52.670;6.750;2024-02-14T01:50:13;25.42;;;24.13;;
60292;SDS011;52402;52.670;6.750;2024-02-14T01:52:39;26.90;;;25.50;;
60292;SDS011;52402;52.670;6.750;2024-02-14T01:55:05;26.00;;;24.60;;
60292;SDS011;52402;52.670;6.750;2024-02-14T01:57:33;25.58;;;24.27;;
60292;SDS011;52402;52.670;6.750;2024-02-14T02:00:00;25.33;;;24.02;;
60292;SDS011;52402;52.670;6.750;2024-02-14T02:02:33;25.25;;;23.95;;
60292;SDS011;52402;52.670;6.750;2024-02-14T02:05:02;26.25;;;24.85;;
60292;SDS011;52402;52.670;6.750;2024-02-14T02:07:28;25.08;;;23.77;;
60292;SDS011;52402;52.670;6.750;2024-02-14T02:09:54;25.02;;;23.63;;
60292;SDS011;52402;52.670;6.750;2024-02-14T02:12:20;24.70;;;23.40;;
60292;SDS011;52402;52.670;6.750;2024-02-14T02:14:46;25.08;;;23.77;;
60292;SDS011;52402;52.670;6.750;2024-02-14T02:17:12;24.90;;;23.60;;
60292;SDS011;52402;52.670;6.750;2024-02-14T02:19:37;25.95;;;24.55;;
60292;SDS011;52402;52.670;6.750;2024-02-14T02:22:03;25.27;;;23.98;;
60292;SDS011;52402;52.670;6.750;2024-02-14T02:24:30;25.23;;;23.92;;
60292;SDS011;52402;52.670;6.750;2024-02-14T02:26:55;25.48;;;24.15;;
60292;SDS011;52402;52.670;6.750;2024-02-14T02:29:22;25.48;;;24.08;;
60292;SDS011;52402;52.670;6.750;2024-02-14T02:31:47;26.15;;;24.75;;
60292;SDS011;52402;52.670;6.750;2024-02-14T02:34:13;24.42;;;23.13;;
60292;SDS011;52402;52.670;6.750;2024-02-14T02:36:43;26.38;;;24.98;;
60292;SDS011;52402;52.670;6.750;2024-02-14T02:39:11;25.63;;;24.23;;
60292;SDS011;52402;52.670;6.750;2024-02-14T02:41:37;25.02;;;23.63;;
60292;SDS011;52402;52.670;6.750;2024-02-14T02:44:02;24.45;;;23.15;;
60292;SDS011;52402;52.670;6.750;2024-02-14T02:46:31;24.73;;;23.42;;
60292;SDS011;52402;52.670;6.750;2024-02-14T02:48:57;24.52;;;23.23;;
60292;SDS011;52402;52.670;6.750;2024-02-14T02:51:23;23.48;;;22.17;;
60292;SDS011;52402;52.670;6.750;2024-02-14T02:53:49;23.92;;;22.63;;
60292;SDS011;52402;52.670;6.750;2024-02-14T02:56:17;24.60;;;23.30;;
60292;SDS011;52402;52.670;6.750;2024-02-14T02:58:43;24.52;;;23.20;;
60292;SDS011;52402;52.670;6.750;2024-02-14T03:01:09;25.05;;;23.65;;
60292;SDS011;52402;52.670;6.750;2024-02-14T03:03:36;24.17;;;22.88;;
60292;SDS011;52402;52.670;6.750;2024-02-14T03:06:03;24.75;;;23.35;;
60292;SDS011;52402;52.670;6.750;2024-02-14T03:08:29;23.60;;;22.30;;
60292;SDS011;52402;52.670;6.750;2024-02-14T03:10:56;24.17;;;22.88;;
60292;SDS011;52402;52.670;6.750;2024-02-14T03:13:24;23.98;;;22.67;;
60292;SDS011;52402;52.670;6.750;2024-02-14T03:15:51;23.55;;;22.25;;
60292;SDS011;52402;52.670;6.750;2024-02-14T03:18:17;24.42;;;23.13;;
60292;SDS011;52402;52.670;6.750;2024-02-14T03:20:43;23.92;;;22.63;;
60292;SDS011;52402;52.670;6.750;2024-02-14T03:23:09;23.23;;;21.92;;
60292;SDS011;52402;52.670;6.750;2024-02-14T03:25:34;22.80;;;21.50;;
60292;SDS011;52402;52.670;6.750;2024-02-14T03:28:02;23.30;;;22.00;;
60292;SDS011;52402;52.670;6.750;2024-02-14T03:30:34;24.35;;;23.05;;
60292;SDS011;52402;52.670;6.750;2024-02-14T03:33:00;24.45;;;23.15;;
60292;SDS011;52402;52.670;6.750;2024-02-14T03:35:26;23.85;;;22.55;;
60292;SDS011;52402;52.670;6.750;2024-02-14T03:37:52;23.60;;;22.30;;
60292;SDS011;52402;52.670;6.750;2024-02-14T03:40:18;23.88;;;22.58;;
60292;SDS011;52402;52.670;6.750;2024-02-14T03:42:47;23.65;;;22.35;;
60292;SDS011;52402;52.670;6.750;2024-02-14T03:45:12;24.00;;;22.70;;
60292;SDS011;52402;52.670;6.750;2024-02-14T03:47:39;23.25;;;21.95;;
60292;SDS011;52402;52.670;6.750;2024-02-14T03:50:05;23.30;;;22.00;;
60292;SDS011;52402;52.670;6.750;2024-02-14T03:52:32;24.33;;;23.02;;
60292;SDS011;52402;52.670;6.750;2024-02-14T03:54:58;23.90;;;22.60;;
60292;SDS011;52402;52.670;6.750;2024-02-14T03:57:27;24.75;;;23.35;;
60292;SDS011;52402;52.670;6.750;2024-02-14T03:59:54;24.88;;;23.48;;
60292;SDS011;52402;52.670;6.750;2024-02-14T04:02:20;23.95;;;22.65;;
60292;SDS011;52402;52.670;6.750;2024-02-14T04:04:48;23.52;;;22.23;;
60292;SDS011;52402;52.670;6.750;2024-02-14T04:07:14;25.67;;;24.25;;
60292;SDS011;52402;52.670;6.750;2024-02-14T04:09:40;24.02;;;22.73;;
60292;SDS011;52402;52.670;6.750;2024-02-14T04:12:05;24.05;;;22.75;;
60292;SDS011;52402;52.670;6.750;2024-02-14T04:14:31;23.95;;;22.65;;
60292;SDS011;52402;52.670;6.750;2024-02-14T04:16:57;24.45;;;23.05;;
60292;SDS011;52402;52.670;6.750;2024-02-14T04:19:22;25.00;;;23.60;;
60292;SDS011;52402;52.670;6.750;2024-02-14T04:21:48;24.80;;;23.40;;
60292;SDS011;52402;52.670;6.750;2024-02-14T04:24:14;25.45;;;24.05;;
60292;SDS011;52402;52.670;6.750;2024-02-14T04:26:39;25.02;;;23.63;;
60292;SDS011;52402;52.670;6.750;2024-02-14T04:29:05;24.20;;;22.80;;
60292;SDS011;52402;52.670;6.750;2024-02-14T04:31:33;25.85;;;24.45;;
60292;SDS011;52402;52.670;6.750;2024-02-14T04:33:58;26.73;;;25.23;;
60292;SDS011;52402;52.670;6.750;2024-02-14T04:36:24;25.85;;;24.45;;
60292;SDS011;52402;52.670;6.750;2024-02-14T04:38:50;25.60;;;24.20;;
60292;SDS011;52402;52.670;6.750;2024-02-14T04:41:16;25.10;;;23.70;;
60292;SDS011;52402;52.670;6.750;2024-02-14T04:43:42;25.65;;;24.15;;
60292;SDS011;52402;52.670;6.750;2024-02-14T04:46:09;25.83;;;24.33;;
60292;SDS011;52402;52.670;6.750;2024-02-14T04:48:35;25.63;;;24.13;;
60292;SDS011;52402;52.670;6.750;2024-02-14T04:51:02;25.48;;;23.98;;
60292;SDS011;52402;52.670;6.750;2024-02-14T04:53:28;26.40;;;24.90;;
60292;SDS011;52402;52.670;6.750;2024-02-14T04:55:54;26.58;;;24.98;;
60292;SDS011;52402;52.670;6.750;2024-02-14T04:58:20;25.98;;;24.45;;
60292;SDS011;52402;52.670;6.750;2024-02-14T05:00:45;25.92;;;24.42;;
60292;SDS011;52402;52.670;6.750;2024-02-14T05:03:11;25.83;;;24.33;;
60292;SDS011;52402;52.670;6.750;2024-02-14T05:05:37;26.42;;;24.92;;
60292;SDS011;52402;52.670;6.750;2024-02-14T05:08:03;25.88;;;24.38;;
60292;SDS011;52402;52.670;6.750;2024-02-14T05:10:30;25.60;;;24.10;;
60292;SDS011;52402;52.670;6.750;2024-02-14T05:12:56;25.42;;;23.92;;
60292;SDS011;52402;52.670;6.750;2024-02-14T05:15:22;25.75;;;24.25;;
60292;SDS011;52402;52.670;6.750;2024-02-14T05:17:47;26.08;;;24.58;;
60292;SDS011;52402;52.670;6.750;2024-02-14T05:20:15;25.75;;;24.25;;
60292;SDS011;52402;52.670;6.750;2024-02-14T05:22:41;26.02;;;24.52;;
60292;SDS011;52402;52.670;6.750;2024-02-14T05:25:07;25.98;;;24.48;;
60292;SDS011;52402;52.670;6.750;2024-02-14T05:27:34;28.58;;;26.88;;
60292;SDS011;52402;52.670;6.750;2024-02-14T05:30:01;25.10;;;23.60;;
60292;SDS011;52402;52.670;6.750;2024-02-14T05:32:30;27.23;;;25.63;;
60292;SDS011;52402;52.670;6.750;2024-02-14T05:34:59;26.23;;;24.73;;
60292;SDS011;52402;52.670;6.750;2024-02-14T05:37:25;27.25;;;25.65;;
60292;SDS011;52402;52.670;6.750;2024-02-14T05:39:54;27.08;;;25.48;;
60292;SDS011;52402;52.670;6.750;2024-02-14T05:42:20;26.20;;;24.65;;
60292;SDS011;52402;52.670;6.750;2024-02-14T05:44:46;27.25;;;25.65;;
60292;SDS011;52402;52.670;6.750;2024-02-14T05:47:12;26.98;;;25.38;;
60292;SDS011;52402;52.670;6.750;2024-02-14T05:49:38;27.15;;;25.55;;
60292;SDS011;52402;52.670;6.750;2024-02-14T05:52:05;26.33;;;24.73;;
60292;SDS011;52402;52.670;6.750;2024-02-14T05:54:31;27.30;;;25.60;;
60292;SDS011;52402;52.670;6.750;2024-02-14T05:56:57;27.90;;;26.20;;
60292;SDS011;52402;52.670;6.750;2024-02-14T05:59:23;27.50;;;25.80;;
60292;SDS011;52402;52.670;6.750;2024-02-14T06:01:48;27.25;;;25.55;;
60292;SDS011;52402;52.670;6.750;2024-02-14T06:04:14;28.40;;;26.70;;
60292;SDS011;52402;52.670;6.750;2024-02-14T06:06:40;28.20;;;26.50;;
60292;SDS011;52402;52.670;6.750;2024-02-14T06:09:06;27.63;;;25.92;;
60292;SDS011;52402;52.670;6.750;2024-02-14T06:11:35;26.95;;;25.35;;
60292;SDS011;52402;52.670;6.750;2024-02-14T06:14:04;27.23;;;25.52;;
60292;SDS011;52402;52.670;6.750;2024-02-14T06:16:30;27.77;;;26.00;;
60292;SDS011;52402;52.670;6.750;2024-02-14T06:18:57;27.38;;;25.67;;
60292;SDS011;52402;52.670;6.750;2024-02-14T06:21:22;26.25;;;24.65;;
60292;SDS011;52402;52.670;6.750;2024-02-14T06:23:48;26.90;;;25.20;;
60292;SDS011;52402;52.670;6.750;2024-02-14T06:26:13;26.00;;;24.40;;
60292;SDS011;52402;52.670;6.750;2024-02-14T06:28:39;26.80;;;25.10;;
60292;SDS011;52402;52.670;6.750;2024-02-14T06:31:05;26.05;;;24.45;;
60292;SDS011;52402;52.670;6.750;2024-02-14T06:33:30;26.90;;;25.15;;
60292;SDS011;52402;52.670;6.750;2024-02-14T06:35:56;27.05;;;25.33;;
60292;SDS011;52402;52.670;6.750;2024-02-14T06:38:22;26.77;;;25.08;;
60292;SDS011;52402;52.670;6.750;2024-02-14T06:40:47;26.20;;;24.60;;
60292;SDS011;52402;52.670;6.750;2024-02-14T06:43:13;26.25;;;24.60;;
60292;SDS011;52402;52.670;6.750;2024-02-14T06:45:38;27.40;;;25.70;;
60292;SDS011;52402;52.670;6.750;2024-02-14T06:48:04;26.92;;;25.23;;
60292;SDS011;52402;52.670;6.750;2024-02-14T06:50:30;27.08;;;25.30;;
60292;SDS011;52402;52.670;6.750;2024-02-14T06:52:56;26.67;;;24.98;;
60292;SDS011;52402;52.670;6.750;2024-02-14T06:55:25;27.50;;;25.70;;
60292;SDS011;52402;52.670;6.750;2024-02-14T06:57:52;27.42;;;25.63;;
60292;SDS011;52402;52.670;6.750;2024-02-14T07:00:17;27.30;;;25.50;;
60292;SDS011;52402;52.670;6.750;2024-02-14T07:02:43;28.08;;;26.27;;
60292;SDS011;52402;52.670;6.750;2024-02-14T07:05:12;28.38;;;26.48;;
60292;SDS011;52402;52.670;6.750;2024-02-14T07:07:39;27.10;;;25.30;;
60292;SDS011;52402;52.670;6.750;2024-02-14T07:10:05;27.23;;;25.42;;
60292;SDS011;52402;52.670;6.750;2024-02-14T07:12:39;26.50;;;24.70;;
60292;SDS011;52402;52.670;6.750;2024-02-14T07:15:23;27.02;;;25.23;;
60292;SDS011;52402;52.670;6.750;2024-02-14T07:17:53;26.05;;;24.35;;
60292;SDS011;52402;52.670;6.750;2024-02-14T07:23:56;26.48;;;24.67;;
60292;SDS011;52402;52.670;6.750;2024-02-14T07:26:22;26.45;;;24.65;;
60292;SDS011;52402;52.670;6.750;2024-02-14T07:28:47;25.77;;;23.98;;
60292;SDS011;52402;52.670;6.750;2024-02-14T07:31:13;25.38;;;23.65;;
60292;SDS011;52402;52.670;6.750;2024-02-14T07:33:39;25.90;;;24.15;;
60292;SDS011;52402;52.670;6.750;2024-02-14T07:36:05;26.42;;;24.63;;
60292;SDS011;52402;52.670;6.750;2024-02-14T07:38:31;25.75;;;24.05;;
60292;SDS011;52402;52.670;6.750;2024-02-14T07:40:57;26.40;;;24.60;;
60292;SDS011;52402;52.670;6.750;2024-02-14T07:43:22;25.40;;;23.65;;
60292;SDS011;52402;52.670;6.750;2024-02-14T07:45:48;25.58;;;23.88;;
60292;SDS011;52402;52.670;6.750;2024-02-14T07:48:14;25.65;;;23.85;;
60292;SDS011;52402;52.670;6.750;2024-02-14T07:50:39;25.13;;;23.42;;
60292;SDS011;52402;52.670;6.750;2024-02-14T07:53:05;25.63;;;23.88;;
60292;SDS011;52402;52.670;6.750;2024-02-14T07:55:31;25.35;;;23.65;;
60292;SDS011;52402;52.670;6.750;2024-02-14T07:57:58;25.58;;;23.80;;
60292;SDS011;52402;52.670;6.750;2024-02-14T08:00:25;25.60;;;23.80;;
60292;SDS011;52402;52.670;6.750;2024-02-14T08:02:50;24.58;;;22.88;;
60292;SDS011;52402;52.670;6.750;2024-02-14T08:05:16;25.63;;;23.90;;
60292;SDS011;52402;52.670;6.750;2024-02-14T08:07:44;24.52;;;22.83;;
60292;SDS011;52402;52.670;6.750;2024-02-14T08:10:10;25.20;;;23.40;;
60292;SDS011;52402;52.670;6.750;2024-02-14T08:12:35;26.27;;;24.38;;
60292;SDS011;52402;52.670;6.750;2024-02-14T08:15:01;25.80;;;24.00;;
60292;SDS011;52402;52.670;6.750;2024-02-14T08:17:29;26.10;;;24.27;;
60292;SDS011;52402;52.670;6.750;2024-02-14T08:19:55;26.63;;;24.73;;
60292;SDS011;52402;52.670;6.750;2024-02-14T08:22:21;26.98;;;25.08;;
60292;SDS011;52402;52.670;6.750;2024-02-14T08:24:46;26.50;;;24.60;;
60292;SDS011;52402;52.670;6.750;2024-02-14T08:27:12;26.42;;;24.52;;
60292;SDS011;52402;52.670;6.750;2024-02-14T08:29:38;26.30;;;24.40;;
60292;SDS011;52402;52.670;6.750;2024-02-14T08:32:03;26.65;;;24.75;;
60292;SDS011;52402;52.670;6.750;2024-02-14T08:34:30;26.95;;;25.05;;
60292;SDS011;52402;52.670;6.750;2024-02-14T08:36:55;26.92;;;25.02;;
60292;SDS011;52402;52.670;6.750;2024-02-14T08:39:21;27.15;;;25.25;;
60292;SDS011;52402;52.670;6.750;2024-02-14T08:41:52;27.58;;;25.65;;
60292;SDS011;52402;52.670;6.750;2024-02-14T08:44:21;26.80;;;24.90;;
60292;SDS011;52402;52.670;6.750;2024-02-14T08:46:47;27.70;;;25.70;;
60292;SDS011;52402;52.670;6.750;2024-02-14T08:49:15;26.92;;;25.02;;
60292;SDS011;52402;52.670;6.750;2024-02-14T08:51:51;27.40;;;25.50;;
60292;SDS011;52402;52.670;6.750;2024-02-14T08:54:17;27.10;;;25.20;;
60292;SDS011;52402;52.670;6.750;2024-02-14T08:56:43;27.67;;;25.67;;
60292;SDS011;52402;52.670;6.750;2024-02-14T08:59:09;26.30;;;24.40;;
60292;SDS011;52402;52.670;6.750;2024-02-14T09:01:39;27.33;;;25.42;;
60292;SDS011;52402;52.670;6.750;2024-02-14T09:04:21;26.23;;;24.38;;
60292;SDS011;52402;52.670;6.750;2024-02-14T09:06:59;26.65;;;24.75;;
60292;SDS011;52402;52.670;6.750;2024-02-14T09:09:33;25.77;;;23.98;;
60292;SDS011;52402;52.670;6.750;2024-02-14T09:12:09;26.88;;;24.98;;
60292;SDS011;52402;52.670;6.750;2024-02-14T09:14:42;25.48;;;23.67;;
60292;SDS011;52402;52.670;6.750;2024-02-14T09:17:17;25.77;;;23.98;;
60292;SDS011;52402;52.670;6.750;2024-02-14T09:19:55;25.85;;;24.05;;
60292;SDS011;52402;52.670;6.750;2024-02-14T09:22:24;26.25;;;24.40;;
60292;SDS011;52402;52.670;6.750;2024-02-14T09:24:50;25.70;;;23.90;;
60292;SDS011;52402;52.670;6.750;2024-02-14T09:27:17;25.95;;;24.15;;
60292;SDS011;52402;52.670;6.750;2024-02-14T09:29:43;25.23;;;23.42;;
60292;SDS011;52402;52.670;6.750;2024-02-14T09:32:08;25.85;;;24.05;;
60292;SDS011;52402;52.670;6.750;2024-02-14T09:34:34;26.17;;;24.33;;
60292;SDS011;52402;52.670;6.750;2024-02-14T09:37:00;25.48;;;23.67;;
60292;SDS011;52402;52.670;6.750;2024-02-14T09:39:26;24.75;;;22.95;;
60292;SDS011;52402;52.670;6.750;2024-02-14T09:41:52;26.38;;;24.48;;
60292;SDS011;52402;52.670;6.750;2024-02-14T09:44:25;26.55;;;24.65;;
60292;SDS011;52402;52.670;6.750;2024-02-14T09:46:53;25.50;;;23.70;;
60292;SDS011;52402;52.670;6.750;2024-02-14T09:49:21;25.48;;;23.67;;
60292;SDS011;52402;52.670;6.750;2024-02-14T09:51:50;26.42;;;24.52;;
60292;SDS011;52402;52.670;6.750;2024-02-14T09:54:17;26.15;;;24.25;;
60292;SDS011;52402;52.670;6.750;2024-02-14T09:56:52;26.38;;;24.48;;
60292;SDS011;52402;52.670;6.750;2024-02-14T09:59:21;26.15;;;24.25;;
60292;SDS011;52402;52.670;6.750;2024-02-14T10:01:47;25.88;;;23.98;;
60292;SDS011;52402;52.670;6.750;2024-02-14T10:06:44;26.55;;;24.65;;
60292;SDS011;52402;52.670;6.750;2024-02-14T10:09:10;26.80;;;24.90;;
60292;SDS011;52402;52.670;6.750;2024-02-14T10:11:36;28.42;;;26.42;;
60292;SDS011;52402;52.670;6.750;2024-02-14T10:14:04;27.70;;;25.70;;
60292;SDS011;52402;52.670;6.750;2024-02-14T10:16:34;26.95;;;25.05;;
60292;SDS011;52402;52.670;6.750;2024-02-14T10:19:01;27.50;;;25.50;;
60292;SDS011;52402;52.670;6.750;2024-02-14T10:21:27;27.85;;;25.85;;
60292;SDS011;52402;52.670;6.750;2024-02-14T10:23:53;27.35;;;25.35;;
60292;SDS011;52402;52.670;6.750;2024-02-14T10:26:22;26.93;;;25.03;;
60292;SDS011;52402;52.670;6.750;2024-02-14T10:28:48;27.77;;;25.77;;
60292;SDS011;52402;52.670;6.750;2024-02-14T10:31:26;26.88;;;24.98;;
60292;SDS011;52402;52.670;6.750;2024-02-14T10:33:53;26.75;;;24.85;;
60292;SDS011;52402;52.670;6.750;2024-02-14T10:36:21;28.15;;;26.15;;
60292;SDS011;52402;52.670;6.750;2024-02-14T10:38:47;27.25;;;25.27;;
60292;SDS011;52402;52.670;6.750;2024-02-14T10:41:15;27.42;;;25.42;;
60292;SDS011;52402;52.670;6.750;2024-02-14T10:43:41;27.23;;;25.23;;
60292;SDS011;52402;52.670;6.750;2024-02-14T10:46:12;27.02;;;25.02;;
60292;SDS011;52402;52.670;6.750;2024-02-14T10:48:49;27.58;;;25.58;;
60292;SDS011;52402;52.670;6.750;2024-02-14T10:51:19;26.35;;;24.45;;
60292;SDS011;52402;52.670;6.750;2024-02-14T10:53:49;27.20;;;25.20;;
60292;SDS011;52402;52.670;6.750;2024-02-14T10:56:17;27.48;;;25.48;;
60292;SDS011;52402;52.670;6.750;2024-02-14T10:58:55;27.88;;;25.88;;
60292;SDS011;52402;52.670;6.750;2024-02-14T11:01:26;26.70;;;24.80;;
60292;SDS011;52402;52.670;6.750;2024-02-14T11:03:56;27.30;;;25.30;;
60292;SDS011;52402;52.670;6.750;2024-02-14T11:06:23;26.75;;;24.80;;
60292;SDS011;52402;52.670;6.750;2024-02-14T11:09:02;27.40;;;25.40;;
60292;SDS011;52402;52.670;6.750;2024-02-14T11:11:33;26.75;;;24.80;;
60292;SDS011;52402;52.670;6.750;2024-02-14T11:13:59;27.27;;;25.27;;
60292;SDS011;52402;52.670;6.750;2024-02-14T11:16:30;27.13;;;25.13;;
60292;SDS011;52402;52.670;6.750;2024-02-14T11:19:11;27.13;;;25.15;;
60292;SDS011;52402;52.670;6.750;2024-02-14T11:21:51;28.50;;;26.48;;
60292;SDS011;52402;52.670;6.750;2024-02-14T11:24:19;26.92;;;24.92;;
60292;SDS011;52402;52.670;6.750;2024-02-14T11:27:42;27.27;;;25.27;;
60292;SDS011;52402;52.670;6.750;2024-02-14T11:30:10;27.48;;;25.48;;
60292;SDS011;52402;52.670;6.750;2024-02-14T11:32:37;26.52;;;24.63;;
60292;SDS011;52402;52.670;6.750;2024-02-14T11:35:10;26.88;;;24.88;;
60292;SDS011;52402;52.670;6.750;2024-02-14T11:37:37;27.35;;;25.35;;
60292;SDS011;52402;52.670;6.750;2024-02-14T11:40:03;27.65;;;25.65;;
60292;SDS011;52402;52.670;6.750;2024-02-14T11:42:32;27.45;;;25.45;;
60292;SDS011;52402;52.670;6.750;2024-02-14T11:44:58;27.02;;;25.02;;
60292;SDS011;52402;52.670;6.750;2024-02-14T11:47:26;28.52;;;26.48;;
60292;SDS011;52402;52.670;6.750;2024-02-14T11:49:52;28.13;;;26.13;;
60292;SDS011;52402;52.670;6.750;2024-02-14T11:52:21;26.95;;;25.02;;
60292;SDS011;52402;52.670;6.750;2024-02-14T11:54:47;28.08;;;26.08;;
60292;SDS011;52402;52.670;6.750;2024-02-14T11:57:17;28.02;;;26.02;;
60292;SDS011;52402;52.670;6.750;2024-02-14T11:59:43;27.95;;;25.95;;
60292;SDS011;52402;52.670;6.750;2024-02-14T12:02:11;27.90;;;25.90;;
60292;SDS011;52402;52.670;6.750;2024-02-14T12:04:38;28.95;;;26.85;;
60292;SDS011;52402;52.670;6.750;2024-02-14T12:07:04;27.80;;;25.80;;
60292;SDS011;52402;52.670;6.750;2024-02-14T12:09:30;27.98;;;25.98;;
60292;SDS011;52402;52.670;6.750;2024-02-14T12:11:58;28.50;;;26.50;;
60292;SDS011;52402;52.670;6.750;2024-02-14T12:14:23;28.58;;;26.58;;
60292;SDS011;52402;52.670;6.750;2024-02-14T12:16:50;28.38;;;26.38;;
60292;SDS011;52402;52.670;6.750;2024-02-14T12:19:16;27.60;;;25.60;;
60292;SDS011;52402;52.670;6.750;2024-02-14T12:21:42;28.83;;;26.75;;
60292;SDS011;52402;52.670;6.750;2024-02-14T12:24:11;28.83;;;26.73;;
60292;SDS011;52402;52.670;6.750;2024-02-14T12:26:40;28.30;;;26.27;;
60292;SDS011;52402;52.670;6.750;2024-02-14T12:29:07;27.80;;;25.80;;
60292;SDS011;52402;52.670;6.750;2024-02-14T12:31:36;28.58;;;26.58;;
60292;SDS011;52402;52.670;6.750;2024-02-14T12:34:02;28.50;;;26.50;;
60292;SDS011;52402;52.670;6.750;2024-02-14T12:36:30;29.02;;;27.00;;
60292;SDS011;52402;52.670;6.750;2024-02-14T12:38:56;29.45;;;27.35;;
60292;SDS011;52402;52.670;6.750;2024-02-14T12:41:22;28.13;;;26.23;;
60292;SDS011;52402;52.670;6.750;2024-02-14T12:43:58;30.02;;;27.92;;
60292;SDS011;52402;52.670;6.750;2024-02-14T12:46:25;28.65;;;26.65;;
60292;SDS011;52402;52.670;6.750;2024-02-14T12:48:51;28.30;;;26.30;;
60292;SDS011;52402;52.670;6.750;2024-02-14T12:51:17;28.88;;;26.88;;
60292;SDS011;52402;52.670;6.750;2024-02-14T12:53:43;28.52;;;26.52;;
60292;SDS011;52402;52.670;6.750;2024-02-14T12:56:08;28.83;;;26.80;;
60292;SDS011;52402;52.670;6.750;2024-02-14T12:58:34;28.40;;;26.40;;
60292;SDS011;52402;52.670;6.750;2024-02-14T13:01:00;29.35;;;27.25;;
60292;SDS011;52402;52.670;6.750;2024-02-14T13:03:26;27.35;;;25.35;;
60292;SDS011;52402;52.670;6.750;2024-02-14T13:05:53;30.00;;;27.90;;
60292;SDS011;52402;52.670;6.750;2024-02-14T13:08:19;29.05;;;26.95;;
60292;SDS011;52402;52.670;6.750;2024-02-14T13:10:45;29.95;;;27.85;;
60292;SDS011;52402;52.670;6.750;2024-02-14T13:13:12;28.42;;;26.33;;
60292;SDS011;52402;52.670;6.750;2024-02-14T13:15:39;29.80;;;27.63;;
60292;SDS011;52402;52.670;6.750;2024-02-14T13:18:05;28.67;;;26.58;;
60292;SDS011;52402;52.670;6.750;2024-02-14T13:20:34;27.55;;;25.55;;
60292;SDS011;52402;52.670;6.750;2024-02-14T13:23:00;28.40;;;26.30;;
60292;SDS011;52402;52.670;6.750;2024-02-14T13:25:27;28.63;;;26.52;;
60292;SDS011;52402;52.670;6.750;2024-02-14T13:27:53;28.33;;;26.23;;
60292;SDS011;52402;52.670;6.750;2024-02-14T13:30:20;29.15;;;27.05;;
60292;SDS011;52402;52.670;6.750;2024-02-14T13:32:46;29.30;;;27.20;;
60292;SDS011;52402;52.670;6.750;2024-02-14T13:37:52;28.08;;;26.08;;
60292;SDS011;52402;52.670;6.750;2024-02-14T13:40:18;29.02;;;26.92;;
60292;SDS011;52402;52.670;6.750;2024-02-14T13:42:43;28.70;;;26.60;;
60292;SDS011;52402;52.670;6.750;2024-02-14T13:45:11;28.23;;;26.23;;
60292;SDS011;52402;52.670;6.750;2024-02-14T13:47:39;28.30;;;26.30;;
60292;SDS011;52402;52.670;6.750;2024-02-14T13:50:12;27.60;;;25.60;;
60292;SDS011;52402;52.670;6.750;2024-02-14T13:53:40;26.80;;;24.90;;
60292;SDS011;52402;52.670;6.750;2024-02-14T13:56:06;27.17;;;25.17;;
60292;SDS011;52402;52.670;6.750;2024-02-14T13:58:32;27.02;;;25.02;;
60292;SDS011;52402;52.670;6.750;2024-02-14T14:00:57;27.73;;;25.73;;
60292;SDS011;52402;52.670;6.750;2024-02-14T14:03:24;27.02;;;25.02;;
60292;SDS011;52402;52.670;6.750;2024-02-14T14:05:49;27.48;;;25.48;;
60292;SDS011;52402;52.670;6.750;2024-02-14T14:08:15;28.75;;;26.65;;
60292;SDS011;52402;52.670;6.750;2024-02-14T14:10:50;27.95;;;25.95;;
60292;SDS011;52402;52.670;6.750;2024-02-14T14:13:15;26.10;;;24.20;;
60292;SDS011;52402;52.670;6.750;2024-02-14T14:15:41;26.77;;;24.88;;
60292;SDS011;52402;52.670;6.750;2024-02-14T14:18:07;25.52;;;23.63;;
60292;SDS011;52402;52.670;6.750;2024-02-14T14:20:33;26.73;;;24.83;;
60292;SDS011;52402;52.670;6.750;2024-02-14T14:22:59;27.40;;;25.40;;
60292;SDS011;52402;52.670;6.750;2024-02-14T14:25:25;26.25;;;24.35;;
60292;SDS011;52402;52.670;6.750;2024-02-14T14:27:53;26.98;;;24.98;;
60292;SDS011;52402;52.670;6.750;2024-02-14T14:30:20;25.80;;;23.90;;
60292;SDS011;52402;52.670;6.750;2024-02-14T14:32:48;26.88;;;24.88;;